Time;durP1;ratioP1;P1;durP2;ratioP2;P2;SDS_P1;SDS_P2;PMS_P1;PMS_P2;Temp;Humidity;BMP_temperature;BMP_pressure;BME280_temperature;BME280_humidity;BME280_pressure;Samples;Min_cycle;Max_cycle;Signal;HPM_P1;HPM_P2
2022/10/31 00:02:08;;;;;;;8.30;5.43;;;11.80;99.90;;;;;;5008738;28;20041;-79
2022/10/31 00:04:34;;;;;;;7.53;4.45;;;11.80;99.90;;;;;;5026677;28;20045;-78
2022/10/31 00:06:59;;;;;;;5.63;5.07;;;11.80;99.90;;;;;;5025279;28;20050;-79
2022/10/31 00:09:25;;;;;;;9.95;5.95;;;11.80;99.90;;;;;;5008389;28;20411;-79
2022/10/31 00:11:50;;;;;;;9.00;6.30;;;11.80;99.90;;;;;;5008127;28;20183;-79
2022/10/31 00:14:16;;;;;;;6.90;5.93;;;11.80;99.90;;;;;;5026908;28;20492;-79
2022/10/31 00:16:42;;;;;;;10.05;6.80;;;11.80;99.90;;;;;;5025928;28;20411;-79
2022/10/31 00:19:08;;;;;;;9.60;6.75;;;11.80;99.90;;;;;;5026165;28;20042;-79
2022/10/31 00:21:34;;;;;;;7.22;5.60;;;11.80;99.90;;;;;;5024543;28;20049;-79
2022/10/31 00:24:01;;;;;;;9.50;5.97;;;11.80;99.90;;;;;;5025646;28;20041;-79
2022/10/31 00:26:31;;;;;;;7.82;5.80;;;11.70;99.90;;;;;;5010660;28;20124;-79
2022/10/31 00:28:57;;;;;;;7.20;6.05;;;11.70;99.90;;;;;;5006154;28;20424;-79
2022/10/31 00:31:23;;;;;;;9.98;6.55;;;11.70;99.90;;;;;;4988267;28;20045;-79
2022/10/31 00:33:49;;;;;;;10.00;6.70;;;11.70;99.90;;;;;;4989317;28;20123;-79
2022/10/31 00:36:17;;;;;;;6.72;5.85;;;11.70;99.90;;;;;;5008549;28;20121;-78
2022/10/31 00:38:44;;;;;;;12.88;6.40;;;11.70;99.90;;;;;;5025878;28;20408;-79
2022/10/31 00:41:10;;;;;;;8.18;6.38;;;11.70;99.90;;;;;;5025319;28;20507;-79
2022/10/31 00:43:36;;;;;;;9.55;6.07;;;11.70;99.90;;;;;;5007235;28;20042;-78
2022/10/31 00:46:02;;;;;;;6.00;5.28;;;11.70;99.90;;;;;;5007873;28;20037;-79
2022/10/31 00:48:28;;;;;;;9.57;6.28;;;11.70;99.90;;;;;;5025629;28;20401;-78
2022/10/31 00:50:53;;;;;;;8.23;6.20;;;11.70;99.90;;;;;;5024745;28;20045;-79
2022/10/31 00:53:19;;;;;;;8.25;7.03;;;11.60;99.90;;;;;;5026064;28;20061;-79
2022/10/31 00:55:44;;;;;;;10.35;7.30;;;11.70;99.90;;;;;;5022965;28;20090;-79
2022/10/31 00:58:10;;;;;;;10.30;8.00;;;11.70;99.90;;;;;;5005685;28;20099;-78
2022/10/31 01:00:35;;;;;;;11.25;6.20;;;11.70;99.90;;;;;;5009130;28;20037;-79
2022/10/31 01:03:01;;;;;;;11.48;7.47;;;11.70;99.90;;;;;;5025091;28;20041;-79
2022/10/31 01:05:27;;;;;;;7.60;6.90;;;11.70;99.90;;;;;;5024390;28;20033;-79
2022/10/31 01:07:52;;;;;;;10.23;6.97;;;11.70;99.90;;;;;;5007046;28;20179;-79
2022/10/31 01:10:18;;;;;;;10.40;7.57;;;11.60;99.90;;;;;;5025431;28;20107;-78
2022/10/31 01:12:46;;;;;;;9.00;7.47;;;11.60;99.90;;;;;;5025173;28;20029;-78
2022/10/31 01:15:14;;;;;;;17.25;8.02;;;11.60;99.90;;;;;;5024639;28;20099;-79
2022/10/31 01:17:39;;;;;;;9.27;8.10;;;11.60;99.90;;;;;;5025338;28;20068;-78
2022/10/31 01:20:07;;;;;;;9.48;7.75;;;11.50;99.90;;;;;;5006547;28;20053;-79
2022/10/31 01:22:34;;;;;;;7.95;6.63;;;11.50;99.90;;;;;;5007446;28;20041;-79
2022/10/31 01:24:59;;;;;;;16.38;8.07;;;11.50;99.90;;;;;;5003783;28;20528;-79
2022/10/31 01:27:25;;;;;;;11.25;7.18;;;11.50;99.90;;;;;;5005299;28;20056;-78
2022/10/31 01:29:51;;;;;;;10.48;7.93;;;11.40;99.90;;;;;;5011387;28;20080;-79
2022/10/31 01:32:16;;;;;;;14.32;7.30;;;11.50;99.90;;;;;;5026873;28;20041;-78
2022/10/31 01:34:42;;;;;;;10.25;7.47;;;11.40;99.90;;;;;;5011165;28;20037;-79
2022/10/31 01:37:07;;;;;;;12.68;8.75;;;11.40;99.90;;;;;;5028181;28;20052;-78
2022/10/31 01:39:33;;;;;;;10.43;8.23;;;11.40;99.90;;;;;;5011320;28;20034;-79
2022/10/31 01:41:59;;;;;;;9.57;7.65;;;11.40;99.90;;;;;;5028832;28;20439;-79
2022/10/31 01:44:24;;;;;;;11.30;8.02;;;11.40;99.90;;;;;;5011120;28;20045;-78
2022/10/31 01:46:53;;;;;;;11.75;7.75;;;11.40;99.90;;;;;;4994664;28;20095;-80
2022/10/31 01:49:30;;;;;;;13.77;8.13;;;11.40;99.90;;;;;;5028746;28;20045;-79
2022/10/31 01:52:06;;;;;;;12.98;7.45;;;11.30;99.90;;;;;;5009869;28;20111;-79
2022/10/31 01:54:39;;;;;;;8.35;7.45;;;11.30;99.90;;;;;;5028588;28;20571;-79
2022/10/31 01:57:05;;;;;;;;;;;11.30;99.90;;;;;;5011288;28;20049;-79
2022/10/31 01:59:34;;;;;;;7.70;6.88;;;11.30;99.90;;;;;;5029093;28;19927;-79
2022/10/31 02:02:00;;;;;;;8.98;6.47;;;11.20;99.90;;;;;;5028790;28;20041;-79
2022/10/31 02:04:27;;;;;;;9.98;6.55;;;11.20;99.90;;;;;;5011021;28;20443;-79
2022/10/31 02:07:05;;;;;;;10.23;7.25;;;11.20;99.90;;;;;;5077700;23;20058;-83
2022/10/31 02:09:35;;;;;;;8.82;6.70;;;11.10;99.90;;;;;;5002502;28;20085;-83
2022/10/31 02:12:01;;;;;;;8.23;7.30;;;11.10;99.90;;;;;;5007197;28;20510;-84
2022/10/31 02:14:29;;;;;;;9.98;6.97;;;11.10;99.90;;;;;;5008441;28;20512;-83
2022/10/31 02:16:54;;;;;;;8.30;6.65;;;11.00;99.90;;;;;;5007108;28;20480;-83
2022/10/31 02:19:47;;;;;;;8.15;5.68;;;11.00;99.90;;;;;;5006824;28;20052;-83
2022/10/31 02:22:45;;;;;;;11.02;7.03;;;11.00;99.90;;;;;;5006575;28;20050;-81
2022/10/31 02:25:41;;;;;;;8.23;6.90;;;11.00;99.90;;;;;;5002943;28;20058;-84
2022/10/31 02:28:06;;;;;;;9.23;6.45;;;11.00;99.90;;;;;;4987389;28;20097;-84
2022/10/31 02:31:03;;;;;;;7.93;6.63;;;10.90;99.90;;;;;;4988667;28;20050;-84
2022/10/31 02:33:43;;;;;;;7.70;5.88;;;10.90;99.90;;;;;;4999623;28;20439;-84
2022/10/31 02:36:23;;;;;;;9.80;7.38;;;10.90;99.90;;;;;;5006675;28;20499;-84
2022/10/31 02:39:00;;;;;;;9.13;6.15;;;10.90;99.90;;;;;;5008570;28;20078;-84
2022/10/31 02:41:31;;;;;;;10.60;6.80;;;10.90;99.90;;;;;;5006765;28;20065;-84
2022/10/31 02:44:19;;;;;;;7.20;5.70;;;10.90;99.90;;;;;;5005571;28;20050;-84
2022/10/31 02:46:49;;;;;;;8.38;6.35;;;10.90;99.90;;;;;;4990416;28;20038;-83
2022/10/31 02:49:51;;;;;;;8.00;5.68;;;10.80;99.90;;;;;;5007945;28;20523;-83
2022/10/31 02:52:27;;;;;;;11.05;5.65;;;10.80;99.90;;;;;;4969328;28;20133;-84
2022/10/31 02:54:53;;;;;;;7.45;6.03;;;10.80;99.90;;;;;;5007433;28;20048;-82
2022/10/31 02:57:31;;;;;;;12.32;5.47;;;10.70;99.90;;;;;;5007963;28;20136;-83
2022/10/31 03:00:02;;;;;;;11.20;6.18;;;10.70;99.90;;;;;;5006126;28;20046;-81
2022/10/31 03:02:41;;;;;;;7.53;4.97;;;10.60;99.90;;;;;;5007739;28;20038;-83
2022/10/31 03:05:24;;;;;;;7.47;5.43;;;10.60;99.90;;;;;;5004982;28;20089;-82
2022/10/31 03:08:06;;;;;;;12.20;4.65;;;10.50;99.90;;;;;;5007399;28;20061;-82
2022/10/31 03:10:37;;;;;;;;;;;10.50;99.90;;;;;;5008165;28;20065;-84
2022/10/31 03:13:20;;;;;;;7.05;4.68;;;10.50;99.90;;;;;;5007367;28;19917;-84
2022/10/31 03:15:50;;;;;;;8.98;5.47;;;10.50;99.90;;;;;;5007801;28;20082;-82
2022/10/31 03:18:26;;;;;;;6.05;5.40;;;10.40;99.90;;;;;;5006423;28;20397;-82
2022/10/31 03:21:13;;;;;;;7.63;5.95;;;10.40;99.90;;;;;;5005104;28;20049;-80
2022/10/31 03:23:40;;;;;;;6.30;5.55;;;10.40;99.90;;;;;;4989399;28;20084;-83
2022/10/31 03:26:08;;;;;;;7.20;5.28;;;10.40;99.90;;;;;;4993007;28;20054;-82
2022/10/31 03:28:41;;;;;;;5.75;4.93;;;10.40;99.90;;;;;;5006603;28;20049;-82
2022/10/31 03:31:08;;;;;;;9.73;5.93;;;10.40;99.90;;;;;;5006810;28;20057;-82
2022/10/31 03:33:37;;;;;;;9.55;5.28;;;10.40;99.90;;;;;;5007163;28;20173;-81
2022/10/31 03:36:06;;;;;;;6.97;5.40;;;10.30;99.90;;;;;;5005471;28;20049;-80
2022/10/31 03:38:35;;;;;;;12.35;6.00;;;10.30;99.90;;;;;;5006864;28;20124;-82
2022/10/31 03:41:05;;;;;;;8.13;5.15;;;10.30;99.90;;;;;;5006429;28;20053;-84
2022/10/31 03:43:37;;;;;;;6.38;4.45;;;10.30;99.90;;;;;;4989484;28;20037;-83
2022/10/31 03:46:04;;;;;;;8.27;5.97;;;10.30;99.90;;;;;;5006195;28;20488;-83
2022/10/31 03:48:29;;;;;;;8.68;5.32;;;10.20;99.90;;;;;;5007070;28;20050;-83
2022/10/31 03:51:07;;;;;;;5.57;4.90;;;10.20;99.90;;;;;;5003626;28;20053;-83
2022/10/31 03:53:38;;;;;;;6.63;6.00;;;10.20;99.90;;;;;;5005451;28;20053;-80
2022/10/31 03:56:22;;;;;;;9.95;6.65;;;10.20;99.90;;;;;;4998335;28;20596;-82
2022/10/31 03:59:11;;;;;;;9.02;5.00;;;10.20;99.90;;;;;;4969843;28;20140;-83
2022/10/31 04:01:42;;;;;;;6.20;5.30;;;10.20;99.90;;;;;;4996548;28;20072;-83
2022/10/31 04:04:09;;;;;;;7.45;5.22;;;10.10;99.90;;;;;;5006531;28;20049;-83
2022/10/31 04:06:38;;;;;;;5.40;4.90;;;10.10;99.90;;;;;;5003783;28;20125;-81
2022/10/31 04:09:06;;;;;;;6.43;5.57;;;10.10;99.90;;;;;;5006174;28;20484;-82
2022/10/31 04:11:37;;;;;;;6.70;5.15;;;10.10;99.90;;;;;;5005107;28;20041;-81
2022/10/31 04:14:05;;;;;;;6.40;4.85;;;10.00;99.90;;;;;;4988106;28;20096;-82
2022/10/31 04:16:31;;;;;;;10.82;6.00;;;10.00;99.90;;;;;;5004734;28;20048;-83
2022/10/31 04:18:56;;;;;;;5.93;5.38;;;10.00;99.90;;;;;;5005839;28;20140;-82
2022/10/31 04:21:30;;;;;;;5.50;4.88;;;9.90;99.90;;;;;;5005054;28;20129;-83
2022/10/31 04:23:56;;;;;;;8.35;6.50;;;9.90;99.90;;;;;;5004275;28;20136;-82
2022/10/31 04:26:22;;;;;;;7.72;5.18;;;9.90;99.90;;;;;;4989829;28;20038;-79
2022/10/31 04:28:47;;;;;;;9.98;6.07;;;9.90;99.90;;;;;;4993975;28;20404;-82
2022/10/31 04:31:14;;;;;;;9.98;5.97;;;10.00;99.90;;;;;;5005659;28;20089;-82
2022/10/31 04:33:39;;;;;;;6.55;5.45;;;10.00;99.90;;;;;;5004658;28;20054;-82
2022/10/31 04:36:05;;;;;;;7.88;5.40;;;9.90;99.90;;;;;;5004029;28;20067;-83
2022/10/31 04:38:30;;;;;;;10.13;5.80;;;9.90;99.90;;;;;;4988347;28;20124;-83
2022/10/31 04:40:56;;;;;;;5.65;4.72;;;9.90;99.90;;;;;;5005543;28;20630;-84
2022/10/31 04:43:22;;;;;;;8.52;6.35;;;9.90;99.90;;;;;;5005182;28;20038;-83
2022/10/31 04:45:48;;;;;;;10.23;6.60;;;9.90;99.90;;;;;;5004756;28;20046;-80
2022/10/31 04:48:13;;;;;;;9.90;7.93;;;9.90;99.90;;;;;;5005413;28;20042;-84
2022/10/31 04:50:39;;;;;;;9.38;6.95;;;9.90;99.90;;;;;;5004806;28;20125;-83
2022/10/31 04:53:05;;;;;;;7.95;7.00;;;9.90;99.90;;;;;;5005361;28;20132;-82
2022/10/31 04:55:31;;;;;;;9.00;6.88;;;10.00;99.90;;;;;;5004984;28;20050;-82
2022/10/31 04:57:57;;;;;;;12.07;6.95;;;10.00;99.90;;;;;;5004088;28;20137;-82
2022/10/31 05:00:23;;;;;;;10.25;7.45;;;10.00;99.90;;;;;;5004554;28;20053;-81
2022/10/31 05:02:51;;;;;;;7.15;6.47;;;10.00;99.90;;;;;;5005172;28;20045;-81
2022/10/31 05:05:19;;;;;;;7.70;5.85;;;9.90;99.90;;;;;;5005179;28;20038;-81
2022/10/31 05:07:47;;;;;;;7.60;5.75;;;9.90;99.90;;;;;;5003684;28;20065;-82
2022/10/31 05:10:22;;;;;;;8.70;6.38;;;9.90;99.90;;;;;;5005034;28;20132;-82
2022/10/31 05:12:53;;;;;;;11.18;6.38;;;9.90;99.90;;;;;;5005424;28;20038;-82
2022/10/31 05:15:20;;;;;;;10.00;6.85;;;9.80;99.90;;;;;;5004175;28;20038;-82
2022/10/31 05:17:46;;;;;;;7.97;5.90;;;9.80;99.90;;;;;;5005876;28;20492;-83
2022/10/31 05:20:14;;;;;;;12.93;7.25;;;9.80;99.90;;;;;;5004112;28;20160;-82
2022/10/31 05:22:45;;;;;;;8.60;6.70;;;9.80;99.90;;;;;;5003887;28;20049;-83
2022/10/31 05:25:11;;;;;;;6.50;5.85;;;9.80;99.90;;;;;;4999678;28;20504;-83
2022/10/31 05:27:45;;;;;;;14.75;6.20;;;9.80;99.90;;;;;;5000937;28;20675;-82
2022/10/31 05:30:14;;;;;;;8.68;6.15;;;9.80;99.90;;;;;;4966550;28;20137;-82
2022/10/31 05:32:41;;;;;;;8.02;5.57;;;9.70;99.90;;;;;;5004085;28;20827;-82
2022/10/31 05:35:08;;;;;;;8.15;6.32;;;9.70;99.90;;;;;;5003652;28;20049;-82
2022/10/31 05:37:37;;;;;;;7.70;5.80;;;9.70;99.90;;;;;;5001318;28;20045;-82
2022/10/31 05:40:04;;;;;;;11.05;6.40;;;9.70;99.90;;;;;;5004803;28;20127;-81
2022/10/31 05:42:29;;;;;;;8.57;6.15;;;9.70;99.90;;;;;;5004786;28;20057;-82
2022/10/31 05:44:55;;;;;;;5.47;4.95;;;9.70;99.90;;;;;;5003522;28;20038;-82
2022/10/31 05:47:21;;;;;;;16.92;6.35;;;9.60;99.90;;;;;;5004648;28;20129;-83
2022/10/31 05:49:46;;;;;;;7.05;6.40;;;9.70;99.90;;;;;;5004428;28;20111;-80
2022/10/31 05:52:12;;;;;;;7.63;6.30;;;9.60;99.90;;;;;;5003061;28;20109;-82
2022/10/31 05:54:37;;;;;;;6.45;5.63;;;9.60;99.90;;;;;;4987274;28;20042;-81
2022/10/31 05:57:03;;;;;;;7.05;5.13;;;9.60;99.90;;;;;;5003329;28;20452;-81
2022/10/31 05:59:28;;;;;;;6.55;5.32;;;9.60;99.90;;;;;;5003670;28;20042;-82
2022/10/31 06:01:54;;;;;;;9.05;5.95;;;9.50;99.90;;;;;;4997424;28;20054;-82
2022/10/31 06:04:19;;;;;;;7.82;5.97;;;9.60;99.90;;;;;;4984786;28;20053;-81
2022/10/31 06:06:45;;;;;;;11.93;7.78;;;9.60;99.90;;;;;;4983773;28;20055;-82
2022/10/31 06:09:11;;;;;;;8.65;5.72;;;9.60;99.90;;;;;;4983649;28;20475;-82
2022/10/31 06:11:36;;;;;;;6.80;5.57;;;9.60;99.90;;;;;;4983093;28;20050;-83
2022/10/31 06:14:02;;;;;;;7.40;6.40;;;9.60;99.90;;;;;;4984333;28;20464;-83
2022/10/31 06:16:28;;;;;;;9.80;5.28;;;9.60;99.90;;;;;;4983300;28;20042;-83
2022/10/31 06:18:53;;;;;;;7.50;6.05;;;9.60;99.90;;;;;;4985683;28;20045;-81
2022/10/31 06:21:19;;;;;;;8.52;6.30;;;9.50;99.90;;;;;;4987713;28;20549;-82
2022/10/31 06:23:44;;;;;;;8.85;7.28;;;9.50;99.90;;;;;;4987311;28;20377;-80
2022/10/31 06:26:10;;;;;;;7.40;6.18;;;9.60;99.90;;;;;;4970492;28;20038;-79
2022/10/31 06:28:35;;;;;;;7.72;6.90;;;9.50;99.90;;;;;;4989649;28;20049;-79
2022/10/31 06:31:01;;;;;;;11.77;7.20;;;9.50;99.90;;;;;;5000158;28;20485;-79
2022/10/31 06:33:27;;;;;;;10.02;7.10;;;9.50;99.90;;;;;;4983936;28;20038;-80
2022/10/31 06:35:52;;;;;;;10.52;6.95;;;9.50;99.90;;;;;;4986521;28;20044;-81
2022/10/31 06:38:18;;;;;;;9.45;6.50;;;9.40;99.90;;;;;;4989302;28;20262;-81
2022/10/31 06:40:43;;;;;;;8.10;6.35;;;9.40;99.90;;;;;;5000916;28;20050;-81
2022/10/31 06:43:11;;;;;;;11.02;7.57;;;9.50;99.90;;;;;;4999120;28;20034;-81
2022/10/31 06:45:37;;;;;;;15.25;8.13;;;9.50;99.90;;;;;;4969003;28;20134;-81
2022/10/31 06:48:03;;;;;;;9.57;7.95;;;9.40;99.90;;;;;;4997100;28;20146;-83
2022/10/31 06:50:28;;;;;;;10.70;8.88;;;9.50;99.90;;;;;;5004239;28;20034;-80
2022/10/31 06:52:56;;;;;;;9.30;8.07;;;9.50;99.90;;;;;;5007698;28;20070;-80
2022/10/31 06:55:25;;;;;;;7.88;6.72;;;9.50;99.90;;;;;;5007500;28;20293;-80
2022/10/31 06:57:52;;;;;;;10.98;9.38;;;9.50;99.90;;;;;;5006510;28;20071;-80
2022/10/31 07:00:18;;;;;;;10.80;8.68;;;9.50;99.90;;;;;;5007962;28;20046;-80
2022/10/31 07:02:43;;;;;;;10.77;7.28;;;9.50;99.90;;;;;;5007317;28;20042;-78
2022/10/31 07:05:09;;;;;;;12.88;7.88;;;9.50;99.90;;;;;;5000330;28;20119;-81
2022/10/31 07:07:34;;;;;;;9.45;6.88;;;9.50;99.90;;;;;;4986634;28;20121;-82
2022/10/31 07:10:00;;;;;;;11.60;8.18;;;9.50;99.90;;;;;;4986885;28;20046;-80
2022/10/31 07:12:25;;;;;;;10.93;7.82;;;9.50;99.90;;;;;;5005005;28;20108;-82
2022/10/31 07:14:51;;;;;;;11.32;8.45;;;9.50;99.90;;;;;;4992038;28;20452;-82
2022/10/31 07:17:17;;;;;;;13.50;10.57;;;9.60;99.90;;;;;;4995787;28;20042;-84
2022/10/31 07:19:48;;;;;;;13.43;8.07;;;9.60;99.90;;;;;;4967477;28;20101;-86
2022/10/31 07:23:00;;;;;;;14.65;9.60;;;9.50;99.90;;;;;;4984121;23;20149;-86
2022/10/31 07:25:26;;;;;;;8.80;7.90;;;9.50;99.90;;;;;;4985039;28;20531;-81
2022/10/31 07:27:52;;;;;;;14.63;9.18;;;9.60;99.90;;;;;;4995751;28;20489;-85
2022/10/31 07:30:18;;;;;;;13.43;9.88;;;9.60;99.90;;;;;;4989037;28;20283;-80
2022/10/31 07:32:49;;;;;;;15.38;11.43;;;9.60;99.90;;;;;;4987068;28;20148;-80
2022/10/31 07:35:17;;;;;;;16.88;11.50;;;9.70;99.90;;;;;;4987446;28;20045;-81
2022/10/31 07:37:42;;;;;;;16.30;10.07;;;9.70;99.90;;;;;;5004056;28;20053;-81
2022/10/31 07:40:09;;;;;;;14.93;9.15;;;9.70;99.90;;;;;;5006201;28;20040;-81
2022/10/31 07:42:39;;;;;;;12.05;10.30;;;9.70;99.90;;;;;;5006969;28;20045;-81
2022/10/31 07:45:06;;;;;;;13.40;9.70;;;9.70;99.90;;;;;;5005581;28;20484;-80
2022/10/31 07:47:47;;;;;;;11.93;9.35;;;9.70;99.90;;;;;;5006497;28;20038;-81
2022/10/31 07:50:30;;;;;;;14.45;12.23;;;9.80;99.90;;;;;;4992841;28;20100;-80
2022/10/31 07:53:05;;;;;;;14.38;10.77;;;9.80;99.90;;;;;;4993396;28;20041;-80
2022/10/31 07:55:31;;;;;;;22.42;14.57;;;9.80;99.90;;;;;;4992636;28;20042;-80
2022/10/31 07:58:02;;;;;;;19.38;15.05;;;9.90;99.90;;;;;;4988706;28;20439;-80
2022/10/31 08:00:28;;;;;;;17.83;12.88;;;9.80;99.90;;;;;;5000203;28;20116;-80
2022/10/31 08:03:15;;;;;;;17.30;13.38;;;9.90;99.90;;;;;;4989590;28;20039;-80
2022/10/31 08:05:41;;;;;;;14.10;12.23;;;9.90;99.90;;;;;;4991801;28;20050;-80
2022/10/31 08:08:08;;;;;;;18.67;13.95;;;10.00;99.90;;;;;;4998168;28;20046;-81
2022/10/31 08:10:34;;;;;;;16.70;13.20;;;10.00;99.90;;;;;;4976096;28;20184;-80
2022/10/31 08:13:10;;;;;;;16.83;13.10;;;10.00;99.90;;;;;;5003991;28;20541;-80
2022/10/31 08:15:38;;;;;;;20.70;15.40;;;10.10;99.90;;;;;;4991420;28;20057;-81
2022/10/31 08:18:05;;;;;;;15.95;13.30;;;10.10;99.90;;;;;;4987266;28;20042;-82
2022/10/31 08:20:31;;;;;;;17.70;13.77;;;10.20;99.90;;;;;;4969801;28;20054;-81
2022/10/31 08:23:01;;;;;;;20.38;15.15;;;10.20;99.90;;;;;;4997949;28;20060;-79
2022/10/31 08:25:28;;;;;;;24.17;20.42;;;10.30;99.90;;;;;;4995806;28;20047;-82
2022/10/31 08:27:55;;;;;;;25.77;20.05;;;10.30;99.90;;;;;;4986471;28;20046;-83
2022/10/31 08:30:26;;;;;;;22.25;16.45;;;10.30;99.90;;;;;;4988543;28;20115;-85
2022/10/31 08:33:02;;;;;;;23.25;16.25;;;10.30;99.90;;;;;;4990391;28;20045;-82
2022/10/31 08:35:28;;;;;;;23.00;15.27;;;10.40;99.90;;;;;;4984976;28;20042;-84
2022/10/31 08:37:55;;;;;;;20.95;15.60;;;10.50;99.90;;;;;;5000133;28;20408;-84
2022/10/31 08:40:21;;;;;;;20.95;17.20;;;10.50;99.90;;;;;;5003826;28;20539;-83
2022/10/31 08:42:47;;;;;;;23.40;15.13;;;10.50;99.90;;;;;;4987769;28;20130;-82
2022/10/31 08:45:12;;;;;;;25.08;16.80;;;10.60;99.90;;;;;;4970993;28;20074;-83
2022/10/31 08:47:38;;;;;;;22.52;16.05;;;10.60;99.90;;;;;;4987935;28;20046;-82
2022/10/31 08:50:03;;;;;;;25.25;17.20;;;10.70;99.90;;;;;;4990678;28;20559;-82
2022/10/31 08:52:29;;;;;;;18.55;15.40;;;10.70;99.90;;;;;;4970828;28;20047;-81
2022/10/31 08:54:55;;;;;;;25.80;16.40;;;10.70;99.90;;;;;;4968648;28;20042;-82
2022/10/31 08:57:20;;;;;;;27.50;20.25;;;10.80;99.90;;;;;;4968641;28;20043;-81
2022/10/31 08:59:46;;;;;;;25.70;17.88;;;10.80;99.90;;;;;;4973837;28;20057;-79
2022/10/31 09:02:11;;;;;;;24.50;17.48;;;10.90;99.90;;;;;;4992674;28;20045;-78
2022/10/31 09:04:37;;;;;;;21.95;17.15;;;10.90;99.90;;;;;;4993792;28;20084;-75
2022/10/31 09:07:02;;;;;;;26.10;19.58;;;11.00;99.90;;;;;;4989956;28;20117;-80
2022/10/31 09:09:28;;;;;;;26.58;18.63;;;11.00;99.90;;;;;;4992237;28;20511;-80
2022/10/31 09:11:53;;;;;;;27.15;19.17;;;11.10;99.90;;;;;;5005204;28;20408;-83
2022/10/31 09:14:19;;;;;;;28.40;16.98;;;11.10;99.90;;;;;;5005293;28;20045;-84
2022/10/31 09:16:45;;;;;;;23.58;17.65;;;11.20;99.90;;;;;;4987221;28;20046;-85
2022/10/31 09:19:10;;;;;;;24.83;18.13;;;11.20;99.90;;;;;;4982206;28;20555;-85
2022/10/31 09:21:36;;;;;;;28.15;19.27;;;11.20;99.90;;;;;;4992538;28;20522;-88
2022/10/31 09:24:01;;;;;;;29.45;19.02;;;11.30;99.90;;;;;;4987324;28;20461;-84
2022/10/31 09:26:27;;;;;;;30.42;22.90;;;11.30;99.90;;;;;;5003895;28;20107;-87
2022/10/31 09:28:53;;;;;;;27.58;19.42;;;11.40;99.90;;;;;;4985218;28;20050;-84
2022/10/31 09:31:19;;;;;;;32.35;21.17;;;11.40;99.90;;;;;;4968310;28;20057;-79
2022/10/31 09:33:44;;;;;;;36.22;21.17;;;11.50;99.90;;;;;;4985074;28;20275;-81
2022/10/31 09:36:10;;;;;;;35.38;22.70;;;11.50;99.90;;;;;;4968855;28;20050;-86
2022/10/31 09:38:35;;;;;;;30.63;22.50;;;11.60;99.90;;;;;;5001343;28;20516;-86
2022/10/31 09:41:13;;;;;;;32.28;22.42;;;11.60;99.90;;;;;;4993761;28;20050;-83
2022/10/31 09:43:50;;;;;;;35.55;23.50;;;11.70;99.90;;;;;;4984884;28;20050;-84
2022/10/31 09:46:57;;;;;;;33.22;21.88;;;11.70;99.90;;;;;;4952457;28;20050;-84
2022/10/31 09:49:32;;;;;;;30.15;21.25;;;11.80;99.90;;;;;;4941711;28;20054;-88
2022/10/31 09:52:21;;;;;;;35.35;22.38;;;11.80;99.90;;;;;;4985078;28;20258;-84
2022/10/31 09:54:59;;;;;;;43.78;23.95;;;11.90;99.90;;;;;;4978333;28;20050;-87
2022/10/31 09:57:35;;;;;;;39.33;22.55;;;11.90;99.90;;;;;;5000406;28;20485;-86
2022/10/31 10:00:04;;;;;;;36.03;24.55;;;11.90;99.90;;;;;;4990188;28;20232;-91
2022/10/31 10:02:59;;;;;;;33.63;22.88;;;12.00;99.90;;;;;;5007125;28;20123;-83
2022/10/31 10:05:34;;;;;;;33.97;22.30;;;12.00;99.90;;;;;;4999675;28;20042;-85
2022/10/31 10:08:18;;;;;;;36.83;21.58;;;11.90;99.90;;;;;;5007585;28;20140;-82
2022/10/31 10:11:21;;;;;;;33.47;21.70;;;11.90;99.90;;;;;;4994567;28;20464;-81
2022/10/31 10:14:20;;;;;;;36.38;21.08;;;12.00;99.90;;;;;;5007653;28;20400;-82
2022/10/31 10:17:47;;;;;;;;;;;;;;;;;;;;;
2022/10/31 10:21:28;;;;;;;;;;;;;;;;;;;;;
2022/10/31 10:25:06;;;;;;;40.55;21.00;;;12.00;99.90;;;;;;4886661;29;20506;-84
2022/10/31 10:28:50;;;;;;;;;;;;;;;;;;;;;
2022/10/31 10:36:30;;;;;;;;;;;;;;;;;;;;;
2022/10/31 11:01:28;;;;;;;23.13;17.10;;;12.50;99.90;;;;;;4780863;29;20054;-85
2022/10/31 11:03:53;;;;;;;30.48;16.70;;;12.50;99.90;;;;;;4786280;29;20062;-86
2022/10/31 11:06:25;;;;;;;21.95;15.27;;;12.50;99.90;;;;;;4875591;29;20075;-91
2022/10/31 11:08:52;;;;;;;;;;;12.60;99.90;;;;;;4934496;28;20054;-87
2022/10/31 11:11:17;;;;;;;22.75;15.30;;;12.60;99.90;;;;;;4978822;28;19926;-86
2022/10/31 11:13:46;;;;;;;20.35;13.93;;;12.60;99.90;;;;;;4989358;28;20054;-84
2022/10/31 11:16:15;;;;;;;21.60;14.73;;;12.70;99.90;;;;;;4993264;28;20050;-85
2022/10/31 11:18:46;;;;;;;19.85;15.50;;;12.70;99.90;;;;;;4999916;28;20046;-84
2022/10/31 11:21:25;;;;;;;20.33;13.32;;;12.80;99.90;;;;;;4976728;28;20058;-82
2022/10/31 11:24:22;;;;;;;17.63;14.18;;;12.70;99.90;;;;;;4988421;28;20061;-83
2022/10/31 11:26:49;;;;;;;15.48;12.05;;;12.70;99.90;;;;;;4973702;28;20097;-84
2022/10/31 11:29:25;;;;;;;17.30;13.25;;;12.80;99.90;;;;;;4962648;28;20043;-87
2022/10/31 11:31:56;;;;;;;18.98;13.38;;;12.80;99.90;;;;;;4968330;28;20389;-86
2022/10/31 11:41:11;;;;;;;24.33;14.52;;;12.80;99.90;;;;;;5023772;28;20053;-87
2022/10/31 11:43:38;;;;;;;22.45;14.63;;;12.90;99.90;;;;;;5013556;28;20094;-86
2022/10/31 11:46:15;;;;;;;22.75;14.32;;;12.90;99.90;;;;;;4996839;28;20334;-86
2022/10/31 11:48:48;;;;;;;26.25;14.77;;;13.00;99.90;;;;;;4988642;28;20387;-85
2022/10/31 11:51:24;;;;;;;17.55;11.95;;;13.00;99.90;;;;;;4988578;28;20050;-85
2022/10/31 11:53:57;;;;;;;19.80;13.20;;;13.10;99.90;;;;;;5022611;28;20492;-85
2022/10/31 11:56:24;;;;;;;23.30;13.18;;;13.00;99.90;;;;;;5007645;28;20423;-85
2022/10/31 11:59:01;;;;;;;15.90;11.90;;;13.10;99.90;;;;;;5008483;28;20046;-85
2022/10/31 12:01:35;;;;;;;18.42;13.48;;;13.10;99.90;;;;;;5008680;28;20048;-85
2022/10/31 12:04:11;;;;;;;17.50;12.40;;;13.10;99.90;;;;;;5007141;28;20042;-85
2022/10/31 12:06:45;;;;;;;24.35;14.63;;;13.10;99.90;;;;;;5002060;28;20509;-85
2022/10/31 12:09:25;;;;;;;24.63;14.40;;;13.10;99.90;;;;;;5008111;28;20443;-84
2022/10/31 12:11:59;;;;;;;23.60;13.45;;;13.00;99.90;;;;;;5008087;28;20371;-81
2022/10/31 12:14:25;;;;;;;21.70;15.63;;;13.00;99.90;;;;;;5006438;28;20488;-81
2022/10/31 12:17:15;;;;;;;19.63;14.75;;;12.90;99.90;;;;;;5005873;28;20141;-82
2022/10/31 12:20:05;;;;;;;20.90;14.35;;;13.00;99.90;;;;;;4988188;28;20046;-82
2022/10/31 12:22:59;;;;;;;23.70;13.57;;;12.90;99.90;;;;;;5006258;28;20084;-82
2022/10/31 12:25:28;;;;;;;20.35;15.57;;;12.90;99.90;;;;;;5012741;28;20408;-82
2022/10/31 12:28:34;;;;;;;21.25;14.90;;;12.90;99.90;;;;;;5007373;28;20120;-82
2022/10/31 12:31:22;;;;;;;24.50;16.05;;;12.90;99.90;;;;;;5007607;28;20107;-82
2022/10/31 12:34:32;;;;;;;23.10;15.40;;;13.00;99.90;;;;;;5024732;28;20057;-82
2022/10/31 12:37:03;;;;;;;20.63;13.98;;;13.00;99.90;;;;;;4893534;29;20043;-82
2022/10/31 12:39:50;;;;;;;20.87;13.83;;;13.00;99.90;;;;;;5008507;28;20108;-81
2022/10/31 12:42:18;;;;;;;20.90;13.48;;;13.00;99.90;;;;;;5007821;28;20064;-82
2022/10/31 12:44:53;;;;;;;21.90;14.68;;;13.00;99.90;;;;;;5007738;28;20053;-82
2022/10/31 12:47:26;;;;;;;18.63;13.70;;;12.90;99.90;;;;;;5025397;28;20080;-82
2022/10/31 12:50:20;;;;;;;20.55;13.50;;;13.00;99.90;;;;;;5023905;28;20041;-82
2022/10/31 12:53:15;;;;;;;20.20;13.75;;;13.00;99.90;;;;;;5025330;28;20060;-82
2022/10/31 12:55:49;;;;;;;18.55;12.30;;;13.00;99.90;;;;;;5007264;28;20116;-82
2022/10/31 12:58:29;;;;;;;16.63;12.65;;;13.10;99.90;;;;;;5007509;28;20396;-82
2022/10/31 13:01:14;;;;;;;21.13;13.10;;;13.10;99.90;;;;;;5024705;28;20507;-82
2022/10/31 13:03:50;;;;;;;16.33;11.75;;;13.10;99.90;;;;;;5024038;28;20520;-82
2022/10/31 13:06:27;;;;;;;17.58;10.57;;;13.10;99.90;;;;;;5007483;28;20053;-81
2022/10/31 13:08:57;;;;;;;7.75;6.50;;;13.20;99.90;;;;;;5024476;28;20184;-82
2022/10/31 13:11:40;;;;;;;12.65;8.05;;;13.30;99.90;;;;;;4990138;28;20052;-82
2022/10/31 13:14:26;;;;;;;10.32;7.45;;;13.30;99.90;;;;;;5024574;28;20056;-82
2022/10/31 13:16:53;;;;;;;9.68;7.60;;;13.30;99.90;;;;;;5024419;28;20038;-82
2022/10/31 13:19:27;;;;;;;10.93;6.63;;;13.30;99.90;;;;;;5024202;28;20034;-81
2022/10/31 13:22:09;;;;;;;10.73;6.03;;;13.40;99.90;;;;;;5024578;28;20113;-82
2022/10/31 13:25:00;;;;;;;10.95;5.80;;;13.40;99.90;;;;;;5025112;28;20048;-82
2022/10/31 13:27:41;;;;;;;9.73;5.18;;;13.50;99.90;;;;;;5004849;28;20109;-82
2022/10/31 13:30:17;;;;;;;7.70;3.83;;;13.50;99.90;;;;;;5009137;28;20464;-82
2022/10/31 13:33:02;;;;;;;6.55;3.75;;;13.50;99.90;;;;;;5008924;28;20042;-82
2022/10/31 13:35:46;;;;;;;6.68;4.38;;;13.60;99.90;;;;;;4974687;28;20034;-82
2022/10/31 13:38:54;;;;;;;5.68;3.65;;;13.60;99.90;;;;;;4991051;28;20045;-81
2022/10/31 13:41:44;;;;;;;5.80;4.95;;;13.60;99.90;;;;;;4980596;28;20048;-82
2022/10/31 13:44:23;;;;;;;9.20;4.45;;;13.60;99.90;;;;;;4991219;28;20056;-82
2022/10/31 13:46:50;;;;;;;3.55;2.75;;;13.60;99.90;;;;;;5009381;28;20042;-82